sensor_id;sensor_type;location;lat;lon;timestamp;P1;durP1;ratioP1;P2;durP2;ratioP2
59273;SDS011;45044;41.572;24.730;2023-05-29T00:00:57;11.98;;;6.75;;
59273;SDS011;45044;41.572;24.730;2023-05-29T00:03:24;14.68;;;7.53;;
59273;SDS011;45044;41.572;24.730;2023-05-29T00:05:50;11.82;;;7.70;;
59273;SDS011;45044;41.572;24.730;2023-05-29T00:08:17;11.27;;;6.63;;
59273;SDS011;45044;41.572;24.730;2023-05-29T00:10:44;11.75;;;6.53;;
59273;SDS011;45044;41.572;24.730;2023-05-29T00:13:11;11.73;;;6.95;;
59273;SDS011;45044;41.572;24.730;2023-05-29T00:15:38;11.20;;;7.60;;
59273;SDS011;45044;41.572;24.730;2023-05-29T00:18:04;12.02;;;6.75;;
59273;SDS011;45044;41.572;24.730;2023-05-29T00:20:31;10.45;;;6.60;;
59273;SDS011;45044;41.572;24.730;2023-05-29T00:23:01;12.40;;;6.93;;
59273;SDS011;45044;41.572;24.730;2023-05-29T00:25:32;12.48;;;7.35;;
59273;SDS011;45044;41.572;24.730;2023-05-29T00:27:59;11.10;;;6.85;;
59273;SDS011;45044;41.572;24.730;2023-05-29T00:30:25;11.40;;;7.32;;
59273;SDS011;45044;41.572;24.730;2023-05-29T00:32:52;10.95;;;7.22;;
59273;SDS011;45044;41.572;24.730;2023-05-29T00:35:20;12.85;;;6.53;;
59273;SDS011;45044;41.572;24.730;2023-05-29T00:37:47;11.30;;;6.88;;
59273;SDS011;45044;41.572;24.730;2023-05-29T00:40:15;10.43;;;7.20;;
59273;SDS011;45044;41.572;24.730;2023-05-29T00:42:42;13.15;;;7.47;;
59273;SDS011;45044;41.572;24.730;2023-05-29T00:45:09;11.00;;;6.93;;
59273;SDS011;45044;41.572;24.730;2023-05-29T00:47:36;14.00;;;7.25;;
59273;SDS011;45044;41.572;24.730;2023-05-29T00:50:04;11.50;;;7.68;;
59273;SDS011;45044;41.572;24.730;2023-05-29T00:52:32;11.60;;;6.53;;
59273;SDS011;45044;41.572;24.730;2023-05-29T00:54:58;10.63;;;6.60;;
59273;SDS011;45044;41.572;24.730;2023-05-29T00:57:28;11.15;;;6.55;;
59273;SDS011;45044;41.572;24.730;2023-05-29T00:59:56;10.30;;;7.32;;
59273;SDS011;45044;41.572;24.730;2023-05-29T01:02:24;10.18;;;6.65;;
59273;SDS011;45044;41.572;24.730;2023-05-29T01:04:55;11.23;;;7.10;;
59273;SDS011;45044;41.572;24.730;2023-05-29T01:07:23;12.15;;;6.85;;
59273;SDS011;45044;41.572;24.730;2023-05-29T01:09:50;10.93;;;6.80;;
59273;SDS011;45044;41.572;24.730;2023-05-29T01:17:43;12.18;;;6.70;;
59273;SDS011;45044;41.572;24.730;2023-05-29T01:28:25;9.98;;;6.50;;
59273;SDS011;45044;41.572;24.730;2023-05-29T01:30:57;10.32;;;6.15;;
59273;SDS011;45044;41.572;24.730;2023-05-29T01:33:27;10.45;;;5.70;;
59273;SDS011;45044;41.572;24.730;2023-05-29T01:35:55;10.18;;;5.68;;
59273;SDS011;45044;41.572;24.730;2023-05-29T01:38:22;10.52;;;5.88;;
59273;SDS011;45044;41.572;24.730;2023-05-29T01:40:48;9.15;;;5.72;;
59273;SDS011;45044;41.572;24.730;2023-05-29T01:43:16;8.05;;;5.53;;
59273;SDS011;45044;41.572;24.730;2023-05-29T01:45:42;10.50;;;5.68;;
59273;SDS011;45044;41.572;24.730;2023-05-29T01:48:10;8.93;;;4.82;;
59273;SDS011;45044;41.572;24.730;2023-05-29T01:50:38;7.63;;;4.75;;
59273;SDS011;45044;41.572;24.730;2023-05-29T01:53:06;7.93;;;4.32;;
59273;SDS011;45044;41.572;24.730;2023-05-29T01:55:33;9.30;;;5.20;;
59273;SDS011;45044;41.572;24.730;2023-05-29T01:57:59;7.25;;;4.22;;
59273;SDS011;45044;41.572;24.730;2023-05-29T02:00:29;8.48;;;4.80;;
59273;SDS011;45044;41.572;24.730;2023-05-29T02:02:56;6.57;;;4.32;;
59273;SDS011;45044;41.572;24.730;2023-05-29T02:05:23;8.88;;;4.57;;
59273;SDS011;45044;41.572;24.730;2023-05-29T02:07:50;8.77;;;4.78;;
59273;SDS011;45044;41.572;24.730;2023-05-29T02:10:17;8.38;;;4.70;;
59273;SDS011;45044;41.572;24.730;2023-05-29T02:12:43;8.63;;;4.40;;
59273;SDS011;45044;41.572;24.730;2023-05-29T02:15:10;8.15;;;4.15;;
59273;SDS011;45044;41.572;24.730;2023-05-29T02:17:37;9.85;;;4.97;;
59273;SDS011;45044;41.572;24.730;2023-05-29T02:20:04;8.10;;;4.97;;
59273;SDS011;45044;41.572;24.730;2023-05-29T02:22:31;8.88;;;5.60;;
59273;SDS011;45044;41.572;24.730;2023-05-29T02:24:58;25.88;;;7.45;;
59273;SDS011;45044;41.572;24.730;2023-05-29T02:27:25;11.68;;;6.05;;
59273;SDS011;45044;41.572;24.730;2023-05-29T02:29:52;10.13;;;5.95;;
59273;SDS011;45044;41.572;24.730;2023-05-29T02:32:18;12.55;;;5.82;;
59273;SDS011;45044;41.572;24.730;2023-05-29T02:34:45;12.35;;;8.98;;
59273;SDS011;45044;41.572;24.730;2023-05-29T02:37:12;16.67;;;9.85;;
59273;SDS011;45044;41.572;24.730;2023-05-29T02:39:39;14.98;;;9.45;;
59273;SDS011;45044;41.572;24.730;2023-05-29T02:42:06;13.07;;;9.30;;
59273;SDS011;45044;41.572;24.730;2023-05-29T02:44:33;14.15;;;10.05;;
59273;SDS011;45044;41.572;24.730;2023-05-29T02:47:00;14.70;;;10.80;;
59273;SDS011;45044;41.572;24.730;2023-05-29T02:49:26;11.85;;;8.27;;
59273;SDS011;45044;41.572;24.730;2023-05-29T02:51:53;12.07;;;7.47;;
59273;SDS011;45044;41.572;24.730;2023-05-29T02:54:23;10.23;;;6.32;;
59273;SDS011;45044;41.572;24.730;2023-05-29T02:56:52;10.00;;;6.53;;
59273;SDS011;45044;41.572;24.730;2023-05-29T02:59:19;11.45;;;7.65;;
59273;SDS011;45044;41.572;24.730;2023-05-29T03:01:46;11.30;;;7.43;;
59273;SDS011;45044;41.572;24.730;2023-05-29T03:04:14;10.60;;;6.45;;
59273;SDS011;45044;41.572;24.730;2023-05-29T03:06:41;12.68;;;8.10;;
59273;SDS011;45044;41.572;24.730;2023-05-29T03:09:08;14.77;;;7.85;;
59273;SDS011;45044;41.572;24.730;2023-05-29T03:11:34;11.50;;;6.82;;
59273;SDS011;45044;41.572;24.730;2023-05-29T03:14:02;10.00;;;6.60;;
59273;SDS011;45044;41.572;24.730;2023-05-29T03:16:29;11.93;;;7.25;;
59273;SDS011;45044;41.572;24.730;2023-05-29T03:18:56;12.95;;;6.95;;
59273;SDS011;45044;41.572;24.730;2023-05-29T03:21:22;11.20;;;7.10;;
59273;SDS011;45044;41.572;24.730;2023-05-29T03:23:49;10.68;;;6.38;;
59273;SDS011;45044;41.572;24.730;2023-05-29T03:26:16;11.15;;;5.80;;
59273;SDS011;45044;41.572;24.730;2023-05-29T03:28:43;10.73;;;5.45;;
59273;SDS011;45044;41.572;24.730;2023-05-29T03:31:10;10.90;;;6.28;;
59273;SDS011;45044;41.572;24.730;2023-05-29T03:33:37;10.05;;;6.43;;
59273;SDS011;45044;41.572;24.730;2023-05-29T03:36:03;9.93;;;6.32;;
59273;SDS011;45044;41.572;24.730;2023-05-29T03:38:31;9.73;;;5.68;;
59273;SDS011;45044;41.572;24.730;2023-05-29T03:40:58;12.75;;;7.30;;
59273;SDS011;45044;41.572;24.730;2023-05-29T03:43:25;9.70;;;6.30;;
59273;SDS011;45044;41.572;24.730;2023-05-29T03:45:52;11.23;;;6.22;;
59273;SDS011;45044;41.572;24.730;2023-05-29T03:48:18;8.35;;;5.32;;
59273;SDS011;45044;41.572;24.730;2023-05-29T03:50:48;8.93;;;5.72;;
59273;SDS011;45044;41.572;24.730;2023-05-29T03:53:15;10.27;;;6.20;;
59273;SDS011;45044;41.572;24.730;2023-05-29T03:55:42;11.32;;;6.97;;
59273;SDS011;45044;41.572;24.730;2023-05-29T03:58:09;11.80;;;7.53;;
59273;SDS011;45044;41.572;24.730;2023-05-29T04:00:38;13.27;;;6.97;;
59273;SDS011;45044;41.572;24.730;2023-05-29T04:03:07;11.43;;;6.75;;
59273;SDS011;45044;41.572;24.730;2023-05-29T04:05:34;10.18;;;5.85;;
59273;SDS011;45044;41.572;24.730;2023-05-29T04:08:01;8.95;;;5.70;;
59273;SDS011;45044;41.572;24.730;2023-05-29T04:10:41;9.82;;;6.35;;
59273;SDS011;45044;41.572;24.730;2023-05-29T04:13:08;10.82;;;6.88;;
59273;SDS011;45044;41.572;24.730;2023-05-29T04:15:35;36.28;;;29.60;;
59273;SDS011;45044;41.572;24.730;2023-05-29T04:18:02;17.15;;;13.55;;
59273;SDS011;45044;41.572;24.730;2023-05-29T04:20:29;11.70;;;6.45;;
59273;SDS011;45044;41.572;24.730;2023-05-29T04:22:56;10.18;;;6.78;;
59273;SDS011;45044;41.572;24.730;2023-05-29T04:25:23;11.63;;;7.70;;
59273;SDS011;45044;41.572;24.730;2023-05-29T04:27:50;9.07;;;5.85;;
59273;SDS011;45044;41.572;24.730;2023-05-29T04:30:17;8.60;;;6.22;;
59273;SDS011;45044;41.572;24.730;2023-05-29T04:32:44;8.30;;;5.35;;
59273;SDS011;45044;41.572;24.730;2023-05-29T04:35:11;8.57;;;5.43;;
59273;SDS011;45044;41.572;24.730;2023-05-29T04:37:37;10.60;;;5.97;;
59273;SDS011;45044;41.572;24.730;2023-05-29T04:40:07;8.98;;;5.70;;
59273;SDS011;45044;41.572;24.730;2023-05-29T04:42:35;8.40;;;5.70;;
59273;SDS011;45044;41.572;24.730;2023-05-29T04:45:03;16.92;;;12.48;;
59273;SDS011;45044;41.572;24.730;2023-05-29T04:47:34;22.23;;;15.27;;
59273;SDS011;45044;41.572;24.730;2023-05-29T04:50:03;11.55;;;8.38;;
59273;SDS011;45044;41.572;24.730;2023-05-29T04:52:29;9.32;;;5.78;;
59273;SDS011;45044;41.572;24.730;2023-05-29T04:54:56;7.80;;;5.55;;
59273;SDS011;45044;41.572;24.730;2023-05-29T04:57:23;10.07;;;6.30;;
59273;SDS011;45044;41.572;24.730;2023-05-29T04:59:50;16.60;;;10.85;;
59273;SDS011;45044;41.572;24.730;2023-05-29T05:02:17;14.82;;;9.25;;
59273;SDS011;45044;41.572;24.730;2023-05-29T05:04:43;13.52;;;7.90;;
59273;SDS011;45044;41.572;24.730;2023-05-29T05:07:11;12.57;;;7.70;;
59273;SDS011;45044;41.572;24.730;2023-05-29T05:09:39;11.85;;;7.45;;
59273;SDS011;45044;41.572;24.730;2023-05-29T05:12:06;10.30;;;6.72;;
59273;SDS011;45044;41.572;24.730;2023-05-29T05:14:32;11.95;;;6.15;;
59273;SDS011;45044;41.572;24.730;2023-05-29T05:16:59;13.40;;;8.02;;
59273;SDS011;45044;41.572;24.730;2023-05-29T05:19:26;12.57;;;7.75;;
59273;SDS011;45044;41.572;24.730;2023-05-29T05:21:53;12.68;;;9.07;;
59273;SDS011;45044;41.572;24.730;2023-05-29T05:24:20;12.98;;;8.43;;
59273;SDS011;45044;41.572;24.730;2023-05-29T05:26:46;13.10;;;8.25;;
59273;SDS011;45044;41.572;24.730;2023-05-29T05:29:13;12.27;;;8.65;;
59273;SDS011;45044;41.572;24.730;2023-05-29T05:31:40;15.20;;;8.95;;
59273;SDS011;45044;41.572;24.730;2023-05-29T05:34:07;11.85;;;8.60;;
59273;SDS011;45044;41.572;24.730;2023-05-29T05:36:33;15.48;;;9.50;;
59273;SDS011;45044;41.572;24.730;2023-05-29T05:39:00;12.13;;;8.63;;
59273;SDS011;45044;41.572;24.730;2023-05-29T05:41:27;12.05;;;7.95;;
59273;SDS011;45044;41.572;24.730;2023-05-29T05:43:54;11.68;;;8.38;;
59273;SDS011;45044;41.572;24.730;2023-05-29T05:46:20;14.80;;;8.75;;
59273;SDS011;45044;41.572;24.730;2023-05-29T05:48:50;15.20;;;9.75;;
59273;SDS011;45044;41.572;24.730;2023-05-29T05:51:18;15.57;;;10.25;;
59273;SDS011;45044;41.572;24.730;2023-05-29T05:53:45;15.07;;;10.65;;
59273;SDS011;45044;41.572;24.730;2023-05-29T05:56:12;16.00;;;11.98;;
59273;SDS011;45044;41.572;24.730;2023-05-29T05:58:39;16.27;;;10.82;;
59273;SDS011;45044;41.572;24.730;2023-05-29T06:01:09;16.42;;;11.50;;
59273;SDS011;45044;41.572;24.730;2023-05-29T06:03:36;14.80;;;9.65;;
59273;SDS011;45044;41.572;24.730;2023-05-29T06:06:04;10.32;;;7.22;;
59273;SDS011;45044;41.572;24.730;2023-05-29T06:08:31;10.85;;;6.30;;
59273;SDS011;45044;41.572;24.730;2023-05-29T06:10:58;11.50;;;8.05;;
59273;SDS011;45044;41.572;24.730;2023-05-29T06:13:25;12.50;;;8.32;;
59273;SDS011;45044;41.572;24.730;2023-05-29T06:15:52;12.13;;;7.47;;
59273;SDS011;45044;41.572;24.730;2023-05-29T06:18:20;12.80;;;9.00;;
59273;SDS011;45044;41.572;24.730;2023-05-29T06:20:47;14.82;;;8.35;;
59273;SDS011;45044;41.572;24.730;2023-05-29T06:23:14;12.70;;;9.13;;
59273;SDS011;45044;41.572;24.730;2023-05-29T06:25:41;13.10;;;9.45;;
59273;SDS011;45044;41.572;24.730;2023-05-29T06:28:08;12.50;;;8.38;;
59273;SDS011;45044;41.572;24.730;2023-05-29T06:30:34;11.75;;;7.72;;
59273;SDS011;45044;41.572;24.730;2023-05-29T06:33:01;10.93;;;7.40;;
59273;SDS011;45044;41.572;24.730;2023-05-29T06:35:28;13.77;;;7.25;;
59273;SDS011;45044;41.572;24.730;2023-05-29T06:37:55;10.40;;;7.25;;
59273;SDS011;45044;41.572;24.730;2023-05-29T06:40:22;11.90;;;6.85;;
59273;SDS011;45044;41.572;24.730;2023-05-29T06:42:49;13.00;;;9.75;;
59273;SDS011;45044;41.572;24.730;2023-05-29T06:45:16;10.68;;;7.70;;
59273;SDS011;45044;41.572;24.730;2023-05-29T06:47:42;11.60;;;7.45;;
59273;SDS011;45044;41.572;24.730;2023-05-29T06:50:09;12.07;;;7.63;;
59273;SDS011;45044;41.572;24.730;2023-05-29T06:52:36;10.68;;;7.05;;
59273;SDS011;45044;41.572;24.730;2023-05-29T06:55:03;11.65;;;7.90;;
59273;SDS011;45044;41.572;24.730;2023-05-29T06:57:30;9.32;;;5.20;;
59273;SDS011;45044;41.572;24.730;2023-05-29T06:59:57;8.10;;;5.82;;
59273;SDS011;45044;41.572;24.730;2023-05-29T07:02:24;10.27;;;6.25;;
59273;SDS011;45044;41.572;24.730;2023-05-29T07:04:51;8.88;;;4.30;;
59273;SDS011;45044;41.572;24.730;2023-05-29T07:07:18;7.72;;;4.60;;
59273;SDS011;45044;41.572;24.730;2023-05-29T07:09:44;7.80;;;4.75;;
59273;SDS011;45044;41.572;24.730;2023-05-29T07:12:13;6.95;;;3.75;;
59273;SDS011;45044;41.572;24.730;2023-05-29T07:14:39;13.88;;;4.70;;
59273;SDS011;45044;41.572;24.730;2023-05-29T07:17:06;8.02;;;5.07;;
59273;SDS011;45044;41.572;24.730;2023-05-29T07:19:37;7.50;;;5.70;;
59273;SDS011;45044;41.572;24.730;2023-05-29T07:22:04;9.18;;;5.28;;
59273;SDS011;45044;41.572;24.730;2023-05-29T07:24:31;6.75;;;4.38;;
59273;SDS011;45044;41.572;24.730;2023-05-29T07:26:58;7.55;;;4.25;;
59273;SDS011;45044;41.572;24.730;2023-05-29T07:29:24;8.13;;;4.57;;
59273;SDS011;45044;41.572;24.730;2023-05-29T07:31:51;8.02;;;4.90;;
59273;SDS011;45044;41.572;24.730;2023-05-29T07:34:18;7.60;;;3.92;;
59273;SDS011;45044;41.572;24.730;2023-05-29T07:39:28;11.35;;;5.70;;
59273;SDS011;45044;41.572;24.730;2023-05-29T07:41:56;8.80;;;4.22;;
59273;SDS011;45044;41.572;24.730;2023-05-29T07:44:23;6.85;;;4.22;;
59273;SDS011;45044;41.572;24.730;2023-05-29T07:46:50;11.82;;;5.07;;
59273;SDS011;45044;41.572;24.730;2023-05-29T07:49:16;9.80;;;4.07;;
59273;SDS011;45044;41.572;24.730;2023-05-29T07:51:43;8.02;;;4.57;;
59273;SDS011;45044;41.572;24.730;2023-05-29T07:54:11;6.60;;;3.60;;
59273;SDS011;45044;41.572;24.730;2023-05-29T07:56:37;6.40;;;3.63;;
59273;SDS011;45044;41.572;24.730;2023-05-29T07:59:07;7.68;;;4.30;;
59273;SDS011;45044;41.572;24.730;2023-05-29T08:01:35;6.68;;;3.90;;
59273;SDS011;45044;41.572;24.730;2023-05-29T08:04:03;7.45;;;3.80;;
59273;SDS011;45044;41.572;24.730;2023-05-29T08:06:30;7.50;;;3.63;;
59273;SDS011;45044;41.572;24.730;2023-05-29T08:09:00;6.55;;;3.08;;
59273;SDS011;45044;41.572;24.730;2023-05-29T08:11:28;6.28;;;3.45;;
59273;SDS011;45044;41.572;24.730;2023-05-29T08:13:55;7.05;;;3.50;;
59273;SDS011;45044;41.572;24.730;2023-05-29T08:16:22;8.15;;;3.47;;
59273;SDS011;45044;41.572;24.730;2023-05-29T08:18:49;6.85;;;3.70;;
59273;SDS011;45044;41.572;24.730;2023-05-29T08:21:16;7.47;;;4.03;;
59273;SDS011;45044;41.572;24.730;2023-05-29T08:23:43;6.57;;;3.58;;
59273;SDS011;45044;41.572;24.730;2023-05-29T08:26:10;7.40;;;4.03;;
59273;SDS011;45044;41.572;24.730;2023-05-29T08:28:37;10.02;;;4.32;;
59273;SDS011;45044;41.572;24.730;2023-05-29T08:31:07;17.00;;;15.20;;
59273;SDS011;45044;41.572;24.730;2023-05-29T08:33:34;7.40;;;4.65;;
59273;SDS011;45044;41.572;24.730;2023-05-29T08:36:03;9.45;;;5.15;;
59273;SDS011;45044;41.572;24.730;2023-05-29T08:38:30;9.85;;;5.03;;
59273;SDS011;45044;41.572;24.730;2023-05-29T08:40:57;8.43;;;4.47;;
59273;SDS011;45044;41.572;24.730;2023-05-29T08:43:25;7.57;;;3.88;;
59273;SDS011;45044;41.572;24.730;2023-05-29T08:46:01;6.90;;;3.63;;
59273;SDS011;45044;41.572;24.730;2023-05-29T08:48:30;7.18;;;3.60;;
59273;SDS011;45044;41.572;24.730;2023-05-29T08:50:58;7.30;;;4.25;;
59273;SDS011;45044;41.572;24.730;2023-05-29T08:53:28;8.65;;;4.57;;
59273;SDS011;45044;41.572;24.730;2023-05-29T08:55:57;9.15;;;4.25;;
59273;SDS011;45044;41.572;24.730;2023-05-29T08:58:24;9.30;;;4.25;;
59273;SDS011;45044;41.572;24.730;2023-05-29T09:00:52;8.82;;;4.25;;
59273;SDS011;45044;41.572;24.730;2023-05-29T09:03:20;6.60;;;3.72;;
59273;SDS011;45044;41.572;24.730;2023-05-29T09:05:49;9.13;;;4.63;;
59273;SDS011;45044;41.572;24.730;2023-05-29T09:08:17;7.97;;;5.00;;
59273;SDS011;45044;41.572;24.730;2023-05-29T09:10:44;8.57;;;5.03;;
59273;SDS011;45044;41.572;24.730;2023-05-29T09:13:12;8.70;;;4.53;;
59273;SDS011;45044;41.572;24.730;2023-05-29T09:15:40;9.50;;;5.10;;
59273;SDS011;45044;41.572;24.730;2023-05-29T09:18:10;8.85;;;5.63;;
59273;SDS011;45044;41.572;24.730;2023-05-29T09:20:38;12.57;;;7.55;;
59273;SDS011;45044;41.572;24.730;2023-05-29T09:23:06;12.55;;;6.20;;
59273;SDS011;45044;41.572;24.730;2023-05-29T09:25:35;7.63;;;4.75;;
59273;SDS011;45044;41.572;24.730;2023-05-29T09:28:07;8.23;;;4.95;;
59273;SDS011;45044;41.572;24.730;2023-05-29T09:33:03;10.50;;;5.63;;
59273;SDS011;45044;41.572;24.730;2023-05-29T09:35:35;16.58;;;8.25;;
59273;SDS011;45044;41.572;24.730;2023-05-29T09:41:03;8.57;;;4.95;;
59273;SDS011;45044;41.572;24.730;2023-05-29T09:43:31;8.25;;;5.07;;
59273;SDS011;45044;41.572;24.730;2023-05-29T09:46:00;8.20;;;4.38;;
59273;SDS011;45044;41.572;24.730;2023-05-29T09:48:29;9.32;;;4.60;;
59273;SDS011;45044;41.572;24.730;2023-05-29T09:50:56;7.93;;;4.82;;
59273;SDS011;45044;41.572;24.730;2023-05-29T09:53:25;9.20;;;5.35;;
59273;SDS011;45044;41.572;24.730;2023-05-29T09:55:56;7.20;;;4.53;;
59273;SDS011;45044;41.572;24.730;2023-05-29T09:58:26;8.95;;;5.03;;
59273;SDS011;45044;41.572;24.730;2023-05-29T10:00:53;7.60;;;4.50;;
59273;SDS011;45044;41.572;24.730;2023-05-29T10:03:20;6.78;;;4.20;;
59273;SDS011;45044;41.572;24.730;2023-05-29T10:05:51;7.57;;;4.10;;
59273;SDS011;45044;41.572;24.730;2023-05-29T10:08:23;8.15;;;5.50;;
59273;SDS011;45044;41.572;24.730;2023-05-29T10:10:54;7.65;;;4.43;;
59273;SDS011;45044;41.572;24.730;2023-05-29T10:13:31;5.88;;;4.28;;
59273;SDS011;45044;41.572;24.730;2023-05-29T10:16:03;7.45;;;4.55;;
59273;SDS011;45044;41.572;24.730;2023-05-29T10:18:37;8.82;;;4.15;;
59273;SDS011;45044;41.572;24.730;2023-05-29T10:21:06;9.80;;;4.93;;
59273;SDS011;45044;41.572;24.730;2023-05-29T10:23:34;8.32;;;5.10;;
59273;SDS011;45044;41.572;24.730;2023-05-29T10:26:48;6.97;;;4.00;;
59273;SDS011;45044;41.572;24.730;2023-05-29T10:29:15;7.10;;;3.35;;
59273;SDS011;45044;41.572;24.730;2023-05-29T10:34:50;6.47;;;3.40;;
59273;SDS011;45044;41.572;24.730;2023-05-29T10:38:00;7.15;;;3.28;;
59273;SDS011;45044;41.572;24.730;2023-05-29T10:40:22;6.82;;;3.63;;
59273;SDS011;45044;41.572;24.730;2023-05-29T10:42:50;7.40;;;3.30;;
59273;SDS011;45044;41.572;24.730;2023-05-29T10:53:08;5.93;;;2.97;;
59273;SDS011;45044;41.572;24.730;2023-05-29T10:55:39;5.70;;;3.40;;
59273;SDS011;45044;41.572;24.730;2023-05-29T10:58:07;6.03;;;3.60;;
59273;SDS011;45044;41.572;24.730;2023-05-29T11:00:39;5.70;;;3.00;;
59273;SDS011;45044;41.572;24.730;2023-05-29T11:03:09;7.53;;;3.83;;
59273;SDS011;45044;41.572;24.730;2023-05-29T11:05:59;5.63;;;3.58;;
59273;SDS011;45044;41.572;24.730;2023-05-29T11:08:32;6.07;;;3.60;;
59273;SDS011;45044;41.572;24.730;2023-05-29T11:11:00;7.72;;;4.03;;
59273;SDS011;45044;41.572;24.730;2023-05-29T11:13:33;6.22;;;3.78;;
59273;SDS011;45044;41.572;24.730;2023-05-29T11:16:19;7.57;;;3.78;;
59273;SDS011;45044;41.572;24.730;2023-05-29T11:19:06;6.40;;;3.13;;
59273;SDS011;45044;41.572;24.730;2023-05-29T11:24:15;6.07;;;3.50;;
59273;SDS011;45044;41.572;24.730;2023-05-29T11:26:53;6.72;;;3.70;;
59273;SDS011;45044;41.572;24.730;2023-05-29T11:29:22;6.88;;;3.30;;
59273;SDS011;45044;41.572;24.730;2023-05-29T11:32:10;8.27;;;4.30;;
59273;SDS011;45044;41.572;24.730;2023-05-29T11:34:40;8.00;;;3.60;;
59273;SDS011;45044;41.572;24.730;2023-05-29T11:37:07;6.32;;;3.65;;
59273;SDS011;45044;41.572;24.730;2023-05-29T11:39:37;5.97;;;3.33;;
59273;SDS011;45044;41.572;24.730;2023-05-29T11:42:05;6.53;;;3.70;;
59273;SDS011;45044;41.572;24.730;2023-05-29T11:44:33;7.68;;;4.38;;
59273;SDS011;45044;41.572;24.730;2023-05-29T11:47:00;6.82;;;4.30;;
59273;SDS011;45044;41.572;24.730;2023-05-29T11:49:31;7.63;;;4.80;;
59273;SDS011;45044;41.572;24.730;2023-05-29T11:52:07;8.45;;;4.25;;
59273;SDS011;45044;41.572;24.730;2023-05-29T11:54:40;7.82;;;4.47;;
59273;SDS011;45044;41.572;24.730;2023-05-29T11:57:18;7.53;;;4.03;;
59273;SDS011;45044;41.572;24.730;2023-05-29T11:59:46;6.00;;;3.38;;
59273;SDS011;45044;41.572;24.730;2023-05-29T12:02:14;6.30;;;3.92;;
59273;SDS011;45044;41.572;24.730;2023-05-29T12:04:40;7.13;;;3.40;;
59273;SDS011;45044;41.572;24.730;2023-05-29T12:07:17;6.80;;;3.60;;
59273;SDS011;45044;41.572;24.730;2023-05-29T12:09:44;7.30;;;4.22;;
59273;SDS011;45044;41.572;24.730;2023-05-29T12:12:11;7.07;;;3.88;;
59273;SDS011;45044;41.572;24.730;2023-05-29T12:14:38;9.65;;;4.22;;
59273;SDS011;45044;41.572;24.730;2023-05-29T12:17:05;6.68;;;3.40;;
59273;SDS011;45044;41.572;24.730;2023-05-29T12:19:32;6.82;;;3.35;;
59273;SDS011;45044;41.572;24.730;2023-05-29T12:21:58;7.50;;;3.47;;
59273;SDS011;45044;41.572;24.730;2023-05-29T12:24:25;7.25;;;4.47;;
59273;SDS011;45044;41.572;24.730;2023-05-29T12:26:57;7.57;;;4.15;;
59273;SDS011;45044;41.572;24.730;2023-05-29T12:29:30;8.00;;;3.60;;
59273;SDS011;45044;41.572;24.730;2023-05-29T12:31:59;7.18;;;3.78;;
59273;SDS011;45044;41.572;24.730;2023-05-29T12:34:27;8.32;;;4.45;;
59273;SDS011;45044;41.572;24.730;2023-05-29T12:37:06;7.80;;;4.38;;
59273;SDS011;45044;41.572;24.730;2023-05-29T12:39:40;6.22;;;3.58;;
59273;SDS011;45044;41.572;24.730;2023-05-29T12:42:07;9.35;;;3.92;;
59273;SDS011;45044;41.572;24.730;2023-05-29T12:44:34;6.63;;;3.25;;
59273;SDS011;45044;41.572;24.730;2023-05-29T12:47:04;7.38;;;3.25;;
59273;SDS011;45044;41.572;24.730;2023-05-29T12:49:35;5.38;;;2.95;;
59273;SDS011;45044;41.572;24.730;2023-05-29T12:52:05;6.10;;;3.10;;
59273;SDS011;45044;41.572;24.730;2023-05-29T12:54:38;5.95;;;3.17;;
59273;SDS011;45044;41.572;24.730;2023-05-29T12:57:05;7.03;;;3.25;;
59273;SDS011;45044;41.572;24.730;2023-05-29T12:59:32;5.25;;;2.80;;
59273;SDS011;45044;41.572;24.730;2023-05-29T13:01:59;9.05;;;3.25;;
59273;SDS011;45044;41.572;24.730;2023-05-29T13:04:26;5.60;;;2.90;;
59273;SDS011;45044;41.572;24.730;2023-05-29T13:06:53;5.85;;;2.97;;
59273;SDS011;45044;41.572;24.730;2023-05-29T13:09:20;6.13;;;2.97;;
59273;SDS011;45044;41.572;24.730;2023-05-29T13:11:47;6.50;;;3.03;;
59273;SDS011;45044;41.572;24.730;2023-05-29T13:14:13;4.93;;;3.22;;
59273;SDS011;45044;41.572;24.730;2023-05-29T13:16:40;6.60;;;3.20;;
59273;SDS011;45044;41.572;24.730;2023-05-29T13:19:07;6.78;;;3.50;;
59273;SDS011;45044;41.572;24.730;2023-05-29T13:21:36;7.32;;;3.55;;
59273;SDS011;45044;41.572;24.730;2023-05-29T13:24:03;5.35;;;3.40;;
59273;SDS011;45044;41.572;24.730;2023-05-29T13:26:31;8.20;;;3.72;;
59273;SDS011;45044;41.572;24.730;2023-05-29T13:28:58;5.85;;;3.15;;
59273;SDS011;45044;41.572;24.730;2023-05-29T13:31:25;4.50;;;2.67;;
59273;SDS011;45044;41.572;24.730;2023-05-29T13:33:52;8.32;;;3.65;;
59273;SDS011;45044;41.572;24.730;2023-05-29T13:36:19;5.22;;;3.05;;
59273;SDS011;45044;41.572;24.730;2023-05-29T13:38:45;6.28;;;3.10;;
59273;SDS011;45044;41.572;24.730;2023-05-29T13:41:13;9.55;;;4.20;;
59273;SDS011;45044;41.572;24.730;2023-05-29T13:43:39;6.22;;;3.67;;
59273;SDS011;45044;41.572;24.730;2023-05-29T13:46:11;7.05;;;3.75;;
59273;SDS011;45044;41.572;24.730;2023-05-29T13:48:38;5.32;;;3.63;;
59273;SDS011;45044;41.572;24.730;2023-05-29T13:51:05;7.60;;;3.47;;
59273;SDS011;45044;41.572;24.730;2023-05-29T13:53:32;7.55;;;3.63;;
59273;SDS011;45044;41.572;24.730;2023-05-29T13:55:59;4.70;;;2.55;;
59273;SDS011;45044;41.572;24.730;2023-05-29T13:58:26;8.00;;;3.70;;
59273;SDS011;45044;41.572;24.730;2023-05-29T14:00:52;5.88;;;3.28;;
59273;SDS011;45044;41.572;24.730;2023-05-29T14:03:19;7.22;;;3.60;;
59273;SDS011;45044;41.572;24.730;2023-05-29T14:05:51;5.78;;;3.45;;
59273;SDS011;45044;41.572;24.730;2023-05-29T14:08:19;7.80;;;3.42;;
59273;SDS011;45044;41.572;24.730;2023-05-29T14:10:45;6.63;;;4.35;;
59273;SDS011;45044;41.572;24.730;2023-05-29T14:13:12;7.70;;;4.07;;
59273;SDS011;45044;41.572;24.730;2023-05-29T14:15:39;7.80;;;4.07;;
59273;SDS011;45044;41.572;24.730;2023-05-29T14:18:06;11.27;;;6.00;;
59273;SDS011;45044;41.572;24.730;2023-05-29T14:20:34;9.52;;;4.18;;
59273;SDS011;45044;41.572;24.730;2023-05-29T14:23:02;6.07;;;3.13;;
59273;SDS011;45044;41.572;24.730;2023-05-29T14:25:29;5.85;;;3.53;;
59273;SDS011;45044;41.572;24.730;2023-05-29T14:27:56;7.00;;;3.63;;
59273;SDS011;45044;41.572;24.730;2023-05-29T14:30:23;6.70;;;3.78;;
59273;SDS011;45044;41.572;24.730;2023-05-29T14:32:49;7.32;;;3.80;;
59273;SDS011;45044;41.572;24.730;2023-05-29T14:35:16;7.63;;;4.20;;
59273;SDS011;45044;41.572;24.730;2023-05-29T14:37:43;6.40;;;3.42;;
59273;SDS011;45044;41.572;24.730;2023-05-29T14:40:10;6.50;;;3.25;;
59273;SDS011;45044;41.572;24.730;2023-05-29T14:42:37;5.88;;;3.08;;
59273;SDS011;45044;41.572;24.730;2023-05-29T14:45:04;5.68;;;2.60;;
59273;SDS011;45044;41.572;24.730;2023-05-29T14:47:31;5.45;;;2.70;;
59273;SDS011;45044;41.572;24.730;2023-05-29T14:49:58;6.90;;;2.70;;
59273;SDS011;45044;41.572;24.730;2023-05-29T14:52:25;7.30;;;3.38;;
59273;SDS011;45044;41.572;24.730;2023-05-29T14:54:52;6.28;;;3.05;;
59273;SDS011;45044;41.572;24.730;2023-05-29T14:57:19;7.13;;;2.75;;
59273;SDS011;45044;41.572;24.730;2023-05-29T14:59:46;4.45;;;2.60;;
59273;SDS011;45044;41.572;24.730;2023-05-29T15:02:13;5.72;;;2.53;;
59273;SDS011;45044;41.572;24.730;2023-05-29T15:04:39;5.68;;;2.92;;
59273;SDS011;45044;41.572;24.730;2023-05-29T15:07:06;5.55;;;2.65;;
59273;SDS011;45044;41.572;24.730;2023-05-29T15:09:33;7.82;;;4.20;;